Time;durP1;ratioP1;P1;durP2;ratioP2;P2;SDS_P1;SDS_P2;PMS_P1;PMS_P2;Temp;Humidity;BMP_temperature;BMP_pressure;BME280_temperature;BME280_humidity;BME280_pressure;Samples;Min_cycle;Max_cycle;Signal;HPM_P1;HPM_P2
2024/01/12 00:00:12;;;;;;;7.68;3.70;;;;;;;;;;4998656;28;93855;-78
2024/01/12 00:02:39;;;;;;;6.60;3.33;;;;;;;;;;5012557;28;93002;-78
2024/01/12 00:05:07;;;;;;;10.40;3.95;;;;;;;;;;5019479;28;92317;-78
2024/01/12 00:07:33;;;;;;;10.32;4.63;;;;;;;;;;5021944;28;92067;-79
2024/01/12 00:10:00;;;;;;;6.78;3.33;;;;;;;;;;5009358;28;94653;-78
2024/01/12 00:12:26;;;;;;;9.05;3.90;;;;;;;;;;5030172;28;95312;-78
2024/01/12 00:14:53;;;;;;;7.40;3.60;;;;;;;;;;5006520;28;93284;-78
2024/01/12 00:17:20;;;;;;;6.53;3.88;;;;;;;;;;5000754;28;92301;-78
2024/01/12 00:19:46;;;;;;;10.52;3.65;;;;;;;;;;5025253;28;92210;-78
2024/01/12 00:22:13;;;;;;;10.57;3.75;;;;;;;;;;5007604;28;92890;-78
2024/01/12 00:24:39;;;;;;;10.55;4.18;;;;;;;;;;5006199;28;93449;-78
2024/01/12 00:27:06;;;;;;;10.50;4.30;;;;;;;;;;4996727;28;91703;-78
2024/01/12 00:29:32;;;;;;;11.18;3.97;;;;;;;;;;4993917;28;94239;-78
2024/01/12 00:31:59;;;;;;;5.57;3.47;;;;;;;;;;4994384;28;92459;-78
2024/01/12 00:34:25;;;;;;;7.38;3.60;;;;;;;;;;4993659;28;94694;-78
2024/01/12 00:36:53;;;;;;;10.77;3.25;;;;;;;;;;5007645;28;92530;-77
2024/01/12 00:39:20;;;;;;;9.68;3.22;;;;;;;;;;4992826;28;93696;-77
2024/01/12 00:41:47;;;;;;;7.85;2.83;;;;;;;;;;5004471;28;92391;-77
2024/01/12 00:44:14;;;;;;;6.22;3.05;;;;;;;;;;5012070;28;92886;-77
2024/01/12 00:46:42;;;;;;;8.73;2.88;;;;;;;;;;5012752;28;92406;-77
2024/01/12 00:49:09;;;;;;;7.05;3.05;;;;;;;;;;5012963;28;93030;-77
2024/01/12 00:51:36;;;;;;;8.23;3.67;;;;;;;;;;4997249;28;94712;-77
2024/01/12 00:54:02;;;;;;;9.88;3.78;;;;;;;;;;5011074;28;92232;-77
2024/01/12 00:56:28;;;;;;;3.63;2.45;;;;;;;;;;4996538;28;92659;-77
2024/01/12 00:58:55;;;;;;;3.80;2.30;;;;;;;;;;5009946;28;94627;-77
2024/01/12 01:01:22;;;;;;;7.25;2.90;;;;;;;;;;4995421;28;92178;-77
2024/01/12 01:03:49;;;;;;;10.88;3.30;;;;;;;;;;4995903;28;93024;-77
2024/01/12 01:06:15;;;;;;;6.00;2.50;;;;;;;;;;4995776;28;92539;-77
2024/01/12 01:08:42;;;;;;;4.90;2.33;;;;;;;;;;4994924;28;93704;-77
2024/01/12 01:11:08;;;;;;;5.88;2.53;;;;;;;;;;4995588;28;92347;-77
2024/01/12 01:13:36;;;;;;;6.55;2.58;;;;;;;;;;5010180;28;92274;-77
2024/01/12 01:16:03;;;;;;;7.28;2.63;;;;;;;;;;4996224;28;92036;-77
2024/01/12 01:18:32;;;;;;;6.82;2.42;;;;;;;;;;4995798;28;92208;-77
2024/01/12 01:21:03;;;;;;;4.90;2.38;;;;;;;;;;4996172;28;92965;-77
2024/01/12 01:23:29;;;;;;;6.45;2.70;;;;;;;;;;4996884;28;94680;-77
2024/01/12 01:25:56;;;;;;;6.57;2.30;;;;;;;;;;4996322;28;93560;-77
2024/01/12 01:28:22;;;;;;;9.93;2.92;;;;;;;;;;4996106;28;92422;-77
2024/01/12 01:30:49;;;;;;;4.43;2.28;;;;;;;;;;4995025;28;93898;-77
2024/01/12 01:33:16;;;;;;;5.90;2.70;;;;;;;;;;4996614;28;92458;-77
2024/01/12 01:35:42;;;;;;;4.65;2.13;;;;;;;;;;4995941;28;92316;-77
2024/01/12 01:38:09;;;;;;;8.77;2.75;;;;;;;;;;5001363;28;92963;-77
2024/01/12 01:40:35;;;;;;;5.90;2.10;;;;;;;;;;5014463;28;91861;-78
2024/01/12 01:43:08;;;;;;;7.80;2.67;;;;;;;;;;4998824;28;92466;-78
2024/01/12 01:45:36;;;;;;;4.63;2.67;;;;;;;;;;5016339;28;92313;-78
2024/01/12 01:48:06;;;;;;;9.35;2.33;;;;;;;;;;5017599;28;94864;-78
2024/01/12 01:50:33;;;;;;;5.75;2.70;;;;;;;;;;5027059;28;93983;-78
2024/01/12 01:53:00;;;;;;;4.45;1.98;;;;;;;;;;5033480;28;92237;-77
2024/01/12 01:55:28;;;;;;;6.47;2.47;;;;;;;;;;4977804;28;92826;-78
2024/01/12 01:57:56;;;;;;;8.93;2.90;;;;;;;;;;4965935;28;92381;-77
2024/01/12 02:00:22;;;;;;;4.57;2.20;;;;;;;;;;4958199;28;92351;-77
2024/01/12 02:02:49;;;;;;;4.35;2.45;;;;;;;;;;4968328;28;95854;-78
2024/01/12 02:05:16;;;;;;;7.53;2.85;;;;;;;;;;4979604;28;92128;-77
2024/01/12 02:07:43;;;;;;;6.05;2.60;;;;;;;;;;4968034;28;93262;-77
2024/01/12 02:10:09;;;;;;;7.78;1.98;;;;;;;;;;4962435;28;92326;-77
2024/01/12 02:12:37;;;;;;;5.10;2.05;;;;;;;;;;4973306;28;96845;-77
2024/01/12 02:15:07;;;;;;;7.65;2.25;;;;;;;;;;4972577;28;92997;-78
2024/01/12 02:17:34;;;;;;;9.20;2.63;;;;;;;;;;4965539;28;92376;-77
2024/01/12 02:20:01;;;;;;;7.10;1.98;;;;;;;;;;4962781;28;92197;-77
2024/01/12 02:22:27;;;;;;;5.82;2.40;;;;;;;;;;4958542;28;92440;-78
2024/01/12 02:24:54;;;;;;;5.57;2.13;;;;;;;;;;4971063;28;92520;-78
2024/01/12 02:27:21;;;;;;;7.93;2.67;;;;;;;;;;4959083;28;92212;-77
2024/01/12 02:29:48;;;;;;;4.60;1.77;;;;;;;;;;4961856;28;92051;-77
2024/01/12 02:32:15;;;;;;;5.00;1.92;;;;;;;;;;4968230;28;93647;-77
2024/01/12 02:34:41;;;;;;;6.22;2.65;;;;;;;;;;4972850;28;94272;-78
2024/01/12 02:37:08;;;;;;;12.88;2.35;;;;;;;;;;4968827;28;94974;-78
2024/01/12 02:39:34;;;;;;;6.03;2.30;;;;;;;;;;4992083;28;93064;-77
2024/01/12 02:42:00;;;;;;;4.22;2.17;;;;;;;;;;4958514;28;92146;-77
2024/01/12 02:44:27;;;;;;;7.93;2.35;;;;;;;;;;4972199;28;92338;-78
2024/01/12 02:46:53;;;;;;;3.92;2.20;;;;;;;;;;4970828;28;93233;-77
2024/01/12 02:49:20;;;;;;;8.48;2.50;;;;;;;;;;4959731;28;92284;-77
2024/01/12 02:51:47;;;;;;;9.18;2.70;;;;;;;;;;4970463;28;93089;-78
2024/01/12 02:54:14;;;;;;;5.45;1.92;;;;;;;;;;4999205;28;91916;-78
2024/01/12 02:56:40;;;;;;;7.35;2.00;;;;;;;;;;5018738;28;92418;-77
2024/01/12 02:59:07;;;;;;;5.88;2.40;;;;;;;;;;5003444;28;92456;-78
2024/01/12 03:01:34;;;;;;;6.85;2.08;;;;;;;;;;4996377;28;94746;-77
2024/01/12 03:04:01;;;;;;;5.40;1.90;;;;;;;;;;4999049;28;93975;-78
2024/01/12 03:06:27;;;;;;;6.13;2.03;;;;;;;;;;5009698;28;92336;-78
2024/01/12 03:08:54;;;;;;;9.05;2.08;;;;;;;;;;5009151;28;92396;-78
2024/01/12 03:11:21;;;;;;;7.57;3.05;;;;;;;;;;5015147;28;92675;-78
2024/01/12 03:13:47;;;;;;;3.22;1.77;;;;;;;;;;5010017;28;92079;-78
2024/01/12 03:16:20;;;;;;;3.42;1.65;;;;;;;;;;5004593;28;92508;-78
2024/01/12 03:18:47;;;;;;;7.82;2.28;;;;;;;;;;5011460;28;92237;-78
2024/01/12 03:21:14;;;;;;;5.93;2.42;;;;;;;;;;5013026;28;92552;-78
2024/01/12 03:23:40;;;;;;;6.43;1.92;;;;;;;;;;5011434;28;92973;-78
2024/01/12 03:26:07;;;;;;;3.70;1.67;;;;;;;;;;5013314;28;96982;-77
2024/01/12 03:28:34;;;;;;;5.65;2.20;;;;;;;;;;5003697;28;92187;-78
2024/01/12 03:31:02;;;;;;;5.10;1.90;;;;;;;;;;4999516;28;92496;-78
2024/01/12 03:33:29;;;;;;;5.10;1.60;;;;;;;;;;5008034;28;92437;-78
2024/01/12 03:35:56;;;;;;;6.43;1.90;;;;;;;;;;5017247;28;92164;-78
2024/01/12 03:38:24;;;;;;;8.23;1.88;;;;;;;;;;5002342;28;92475;-78
2024/01/12 03:40:50;;;;;;;4.10;1.73;;;;;;;;;;5008721;28;92779;-78
2024/01/12 03:43:17;;;;;;;7.00;1.77;;;;;;;;;;5023908;28;91724;-78
2024/01/12 03:45:43;;;;;;;7.32;1.95;;;;;;;;;;4997720;28;92386;-78
2024/01/12 03:48:10;;;;;;;5.53;1.48;;;;;;;;;;4992909;28;92851;-77
2024/01/12 03:50:37;;;;;;;4.68;1.67;;;;;;;;;;4992516;28;94721;-78
2024/01/12 03:53:04;;;;;;;7.45;2.05;;;;;;;;;;5001653;28;92337;-77
2024/01/12 03:55:31;;;;;;;3.25;2.00;;;;;;;;;;5003396;28;93797;-77
2024/01/12 03:57:57;;;;;;;8.05;1.92;;;;;;;;;;4994656;28;93121;-78
2024/01/12 04:00:24;;;;;;;8.10;1.70;;;;;;;;;;4994802;28;93306;-78
2024/01/12 04:02:50;;;;;;;4.88;2.03;;;;;;;;;;4993986;28;94442;-78
2024/01/12 04:05:16;;;;;;;3.47;1.65;;;;;;;;;;5001724;28;92221;-77
2024/01/12 04:07:43;;;;;;;2.70;1.45;;;;;;;;;;4994329;28;92143;-78
2024/01/12 04:10:09;;;;;;;5.35;1.88;;;;;;;;;;5012005;28;92231;-78
2024/01/12 04:12:37;;;;;;;5.88;1.90;;;;;;;;;;5007689;28;93198;-78
2024/01/12 04:15:05;;;;;;;4.43;1.33;;;;;;;;;;5005285;28;94834;-77
2024/01/12 04:17:31;;;;;;;4.32;1.50;;;;;;;;;;4998309;28;93799;-77
2024/01/12 04:19:58;;;;;;;9.00;1.35;;;;;;;;;;4993884;28;92918;-77
2024/01/12 04:22:25;;;;;;;3.30;1.20;;;;;;;;;;4998854;28;92464;-77
2024/01/12 04:24:51;;;;;;;3.58;1.60;;;;;;;;;;5004985;28;93258;-78
2024/01/12 04:27:18;;;;;;;2.42;1.48;;;;;;;;;;5006097;28;93367;-77
2024/01/12 04:29:44;;;;;;;2.88;1.40;;;;;;;;;;4994286;28;92519;-77
2024/01/12 04:32:11;;;;;;;4.47;1.38;;;;;;;;;;4993740;28;92574;-78
2024/01/12 04:34:38;;;;;;;5.97;1.67;;;;;;;;;;4994190;28;93085;-77
2024/01/12 04:37:05;;;;;;;6.22;1.35;;;;;;;;;;4999888;28;92501;-78
2024/01/12 04:39:32;;;;;;;4.53;1.58;;;;;;;;;;5020211;27;94662;-78
2024/01/12 04:41:58;;;;;;;3.13;1.30;;;;;;;;;;5011354;28;95159;-78
2024/01/12 04:44:25;;;;;;;4.72;1.10;;;;;;;;;;5000074;28;93330;-78
2024/01/12 04:46:51;;;;;;;4.75;1.55;;;;;;;;;;5015723;28;94536;-78
2024/01/12 04:49:18;;;;;;;3.03;0.82;;;;;;;;;;5003637;28;92655;-78
2024/01/12 04:51:44;;;;;;;4.43;1.42;;;;;;;;;;5007374;28;92547;-78
2024/01/12 04:54:11;;;;;;;4.95;2.20;;;;;;;;;;5007924;28;95121;-78
2024/01/12 04:56:38;;;;;;;4.55;1.38;;;;;;;;;;5027949;28;91700;-77
2024/01/12 04:59:04;;;;;;;10.73;2.38;;;;;;;;;;5017905;28;92091;-78
2024/01/12 05:01:31;;;;;;;4.72;1.50;;;;;;;;;;5003688;28;92531;-78
2024/01/12 05:03:58;;;;;;;3.30;1.48;;;;;;;;;;5014107;28;94709;-78
2024/01/12 05:06:24;;;;;;;3.88;1.33;;;;;;;;;;5004411;28;92654;-77
2024/01/12 05:08:51;;;;;;;2.60;1.05;;;;;;;;;;5013433;28;92544;-78
2024/01/12 05:11:18;;;;;;;7.57;1.83;;;;;;;;;;5011368;28;93289;-78
2024/01/12 05:13:45;;;;;;;5.55;1.40;;;;;;;;;;4999855;28;92540;-78
2024/01/12 05:16:12;;;;;;;3.95;1.27;;;;;;;;;;5001993;28;92371;-78
2024/01/12 05:18:38;;;;;;;5.55;1.58;;;;;;;;;;5002989;28;92430;-78
2024/01/12 05:21:05;;;;;;;3.40;1.83;;;;;;;;;;5009736;28;91921;-78
2024/01/12 05:23:32;;;;;;;4.63;1.80;;;;;;;;;;5005811;28;92571;-78
2024/01/12 05:25:58;;;;;;;2.35;1.40;;;;;;;;;;5004462;28;93622;-78
2024/01/12 05:28:25;;;;;;;4.03;1.15;;;;;;;;;;4999847;28;94763;-77
2024/01/12 05:30:52;;;;;;;6.47;1.52;;;;;;;;;;4982525;28;94669;-78
2024/01/12 05:33:18;;;;;;;5.00;1.40;;;;;;;;;;4999307;28;92998;-77
2024/01/12 05:35:45;;;;;;;3.05;1.38;;;;;;;;;;5013641;28;92049;-78
2024/01/12 05:38:11;;;;;;;3.00;1.23;;;;;;;;;;5004100;28;92422;-78
2024/01/12 05:40:38;;;;;;;4.38;1.45;;;;;;;;;;5007617;28;93040;-78
2024/01/12 05:43:04;;;;;;;6.55;2.10;;;;;;;;;;5022705;28;94095;-78
2024/01/12 05:45:31;;;;;;;2.47;1.20;;;;;;;;;;5005833;28;91996;-78
2024/01/12 05:47:57;;;;;;;3.13;1.27;;;;;;;;;;5019100;28;92324;-78
2024/01/12 05:50:24;;;;;;;5.25;1.27;;;;;;;;;;5015550;28;92608;-78
2024/01/12 05:52:50;;;;;;;4.00;1.40;;;;;;;;;;4995936;28;95268;-78
2024/01/12 05:55:17;;;;;;;3.40;1.42;;;;;;;;;;5005658;28;94088;-78
2024/01/12 05:57:43;;;;;;;4.03;2.00;;;;;;;;;;5005624;28;92292;-78
2024/01/12 06:00:10;;;;;;;4.70;1.40;;;;;;;;;;5005123;28;92471;-77
2024/01/12 06:02:37;;;;;;;5.05;1.40;;;;;;;;;;5013685;28;91924;-78
2024/01/12 06:05:03;;;;;;;2.95;1.05;;;;;;;;;;5016362;28;92576;-78
2024/01/12 06:07:30;;;;;;;4.65;1.50;;;;;;;;;;5005246;28;92286;-78
2024/01/12 06:09:57;;;;;;;3.85;1.17;;;;;;;;;;5015334;28;92063;-78
2024/01/12 06:12:23;;;;;;;7.25;1.58;;;;;;;;;;5019806;28;92899;-78
2024/01/12 06:14:49;;;;;;;5.07;1.50;;;;;;;;;;5021640;28;92486;-78
2024/01/12 06:17:16;;;;;;;2.72;1.42;;;;;;;;;;5011142;28;94362;-78
2024/01/12 06:19:43;;;;;;;3.90;1.33;;;;;;;;;;5024789;28;92977;-78
2024/01/12 06:22:10;;;;;;;4.35;1.13;;;;;;;;;;5002815;28;92901;-76
2024/01/12 06:24:36;;;;;;;3.28;1.70;;;;;;;;;;5003381;28;92404;-76
2024/01/12 06:27:03;;;;;;;3.60;1.42;;;;;;;;;;4995924;28;92865;-77
2024/01/12 06:29:31;;;;;;;7.45;1.50;;;;;;;;;;4991984;28;92846;-76
2024/01/12 06:31:57;;;;;;;2.53;1.27;;;;;;;;;;4998546;28;92428;-76
2024/01/12 06:34:23;;;;;;;3.95;1.00;;;;;;;;;;5010510;28;92266;-77
2024/01/12 06:36:50;;;;;;;7.18;1.85;;;;;;;;;;5004802;28;93449;-78
2024/01/12 06:39:17;;;;;;;4.75;1.58;;;;;;;;;;5013742;28;92457;-78
2024/01/12 06:41:46;;;;;;;3.85;1.23;;;;;;;;;;5013214;28;95092;-79
2024/01/12 06:44:12;;;;;;;2.05;1.17;;;;;;;;;;5013797;28;92408;-79
2024/01/12 06:46:42;;;;;;;5.10;1.40;;;;;;;;;;4992190;28;92513;-78
2024/01/12 06:49:10;;;;;;;4.00;1.30;;;;;;;;;;4998272;28;94624;-77
2024/01/12 06:51:37;;;;;;;4.07;1.67;;;;;;;;;;5005106;28;95042;-78
2024/01/12 06:54:04;;;;;;;3.30;1.42;;;;;;;;;;5000503;28;92170;-78
2024/01/12 06:56:32;;;;;;;2.65;1.30;;;;;;;;;;5000592;28;92563;-78
2024/01/12 06:58:58;;;;;;;2.80;1.55;;;;;;;;;;5006480;28;91712;-77
2024/01/12 07:01:25;;;;;;;6.32;1.80;;;;;;;;;;4990870;28;94606;-78
2024/01/12 07:03:52;;;;;;;3.42;1.10;;;;;;;;;;4992860;28;93145;-77
2024/01/12 07:06:18;;;;;;;3.22;1.63;;;;;;;;;;5001955;28;95071;-77
2024/01/12 07:08:45;;;;;;;5.03;1.67;;;;;;;;;;4993551;28;94159;-78
2024/01/12 07:11:11;;;;;;;3.08;0.82;;;;;;;;;;5014954;28;92490;-78
2024/01/12 07:13:38;;;;;;;3.17;1.60;;;;;;;;;;5005642;28;92493;-80
2024/01/12 07:16:05;;;;;;;3.42;1.40;;;;;;;;;;5007928;28;92460;-76
2024/01/12 07:18:31;;;;;;;3.25;1.80;;;;;;;;;;4990617;28;92930;-75
2024/01/12 07:21:02;;;;;;;5.35;1.77;;;;;;;;;;4994240;28;94126;-76
2024/01/12 07:23:30;;;;;;;6.78;1.40;;;;;;;;;;4991737;28;91949;-76
2024/01/12 07:25:58;;;;;;;6.85;2.00;;;;;;;;;;5004560;28;92784;-75
2024/01/12 07:28:24;;;;;;;2.45;1.20;;;;;;;;;;4990403;28;94054;-76
2024/01/12 07:30:54;;;;;;;7.03;1.30;;;;;;;;;;4989205;28;94899;-76
2024/01/12 07:33:21;;;;;;;2.70;1.35;;;;;;;;;;4994363;28;92515;-76
2024/01/12 07:35:48;;;;;;;5.15;1.67;;;;;;;;;;4991206;28;94887;-77
2024/01/12 07:38:14;;;;;;;3.13;1.70;;;;;;;;;;4990047;28;92442;-76
2024/01/12 07:40:41;;;;;;;5.72;1.40;;;;;;;;;;4992044;28;92609;-76
2024/01/12 07:43:07;;;;;;;1.92;1.10;;;;;;;;;;5001289;28;93221;-76
2024/01/12 07:45:34;;;;;;;5.38;1.98;;;;;;;;;;4996654;28;93054;-76
2024/01/12 07:48:01;;;;;;;5.38;1.75;;;;;;;;;;5000609;28;92238;-76
2024/01/12 07:50:27;;;;;;;3.47;1.42;;;;;;;;;;4996818;28;93892;-76
2024/01/12 07:52:54;;;;;;;1.85;1.08;;;;;;;;;;4994144;28;92807;-76
2024/01/12 07:55:20;;;;;;;6.40;1.30;;;;;;;;;;4997533;28;96548;-76
2024/01/12 07:57:47;;;;;;;4.00;1.40;;;;;;;;;;5002812;28;93900;-75
2024/01/12 08:00:14;;;;;;;3.80;1.52;;;;;;;;;;5000187;28;92787;-76
2024/01/12 08:02:40;;;;;;;3.33;1.35;;;;;;;;;;5003262;28;92400;-76
2024/01/12 08:05:07;;;;;;;2.63;1.25;;;;;;;;;;4999456;28;92472;-76
2024/01/12 08:07:35;;;;;;;4.03;1.80;;;;;;;;;;5004519;28;92984;-76
2024/01/12 08:10:01;;;;;;;4.07;1.42;;;;;;;;;;4990799;28;93091;-76
2024/01/12 08:12:28;;;;;;;9.90;1.63;;;;;;;;;;4991044;28;92257;-76
2024/01/12 08:14:54;;;;;;;10.75;2.15;;;;;;;;;;5004069;28;92455;-76
2024/01/12 08:17:21;;;;;;;4.25;1.50;;;;;;;;;;4993747;28;94368;-76
2024/01/12 08:19:47;;;;;;;3.88;1.50;;;;;;;;;;4999838;28;94894;-77
2024/01/12 08:22:14;;;;;;;4.70;1.83;;;;;;;;;;5007629;28;93284;-76
2024/01/12 08:24:40;;;;;;;2.22;1.70;;;;;;;;;;5005150;28;92539;-76
2024/01/12 08:27:07;;;;;;;4.85;1.80;;;;;;;;;;5003107;28;92526;-76
2024/01/12 08:29:33;;;;;;;2.45;1.63;;;;;;;;;;4995629;28;92462;-76
2024/01/12 08:32:00;;;;;;;5.00;1.80;;;;;;;;;;4996330;28;94032;-76
2024/01/12 08:34:27;;;;;;;3.08;1.27;;;;;;;;;;4995070;28;92317;-76
2024/01/12 08:36:54;;;;;;;4.47;2.05;;;;;;;;;;5001240;28;92088;-76
2024/01/12 08:39:20;;;;;;;3.88;1.60;;;;;;;;;;4995700;28;92328;-76
2024/01/12 08:41:47;;;;;;;3.03;1.45;;;;;;;;;;5001613;28;95734;-76
2024/01/12 08:44:13;;;;;;;2.08;1.50;;;;;;;;;;4999821;28;94704;-76
2024/01/12 08:46:40;;;;;;;4.43;1.80;;;;;;;;;;4999711;28;95297;-76
2024/01/12 08:49:06;;;;;;;4.05;1.50;;;;;;;;;;5002088;28;92333;-76
2024/01/12 08:51:33;;;;;;;3.67;1.55;;;;;;;;;;4997623;28;93784;-77
2024/01/12 08:53:59;;;;;;;5.60;1.52;;;;;;;;;;4998456;28;92474;-78
2024/01/12 08:56:26;;;;;;;4.85;1.65;;;;;;;;;;5007621;28;92453;-77
2024/01/12 08:58:53;;;;;;;1.33;1.15;;;;;;;;;;5013969;28;92926;-76
2024/01/12 09:01:19;;;;;;;2.13;1.40;;;;;;;;;;4994239;28;92104;-76
2024/01/12 09:03:46;;;;;;;4.18;1.70;;;;;;;;;;4994426;28;94961;-76
2024/01/12 09:06:17;;;;;;;;;;;;;;;;;;5005802;28;96857;-76
2024/01/12 09:08:44;;;;;;;3.88;1.65;;;;;;;;;;5008251;28;124858;-76
2024/01/12 09:11:11;;;;;;;2.42;1.35;;;;;;;;;;4996366;28;92449;-75
2024/01/12 09:13:37;;;;;;;4.47;1.25;;;;;;;;;;5011068;28;92116;-75
2024/01/12 09:16:07;;;;;;;3.97;1.73;;;;;;;;;;4998295;28;92175;-75
2024/01/12 09:18:34;;;;;;;4.03;1.15;;;;;;;;;;5005027;28;93893;-76
2024/01/12 09:21:00;;;;;;;9.30;1.80;;;;;;;;;;5012253;28;92302;-78
2024/01/12 09:23:27;;;;;;;6.68;1.73;;;;;;;;;;5006952;28;92642;-78
2024/01/12 09:25:54;;;;;;;3.03;1.63;;;;;;;;;;5002715;28;92114;-76
2024/01/12 09:28:21;;;;;;;3.78;1.40;;;;;;;;;;4995533;28;92523;-77
2024/01/12 09:30:48;;;;;;;3.42;1.48;;;;;;;;;;4995799;28;92263;-76
2024/01/12 09:33:14;;;;;;;12.13;1.70;;;;;;;;;;4994161;28;94794;-77
2024/01/12 09:35:41;;;;;;;8.18;1.98;;;;;;;;;;5010793;28;92222;-77
2024/01/12 09:38:07;;;;;;;4.30;1.90;;;;;;;;;;5010412;28;92509;-78
2024/01/12 09:40:34;;;;;;;5.80;1.65;;;;;;;;;;5003595;28;92370;-76
2024/01/12 09:43:00;;;;;;;4.05;1.55;;;;;;;;;;5012469;28;92561;-77
2024/01/12 09:45:28;;;;;;;6.45;2.05;;;;;;;;;;4994534;28;92515;-77
2024/01/12 09:47:55;;;;;;;4.57;1.75;;;;;;;;;;4994397;28;95562;-77
2024/01/12 09:50:21;;;;;;;2.80;1.83;;;;;;;;;;5004285;28;92935;-78
2024/01/12 09:52:50;;;;;;;5.40;1.50;;;;;;;;;;4995640;28;92410;-77
2024/01/12 09:55:16;;;;;;;3.60;1.58;;;;;;;;;;5004796;28;93337;-77
2024/01/12 09:57:46;;;;;;;6.30;1.75;;;;;;;;;;5010520;28;94978;-79
2024/01/12 10:00:14;;;;;;;3.13;1.27;;;;;;;;;;5015412;28;94037;-78
2024/01/12 10:02:42;;;;;;;8.25;1.40;;;;;;;;;;5018447;28;92455;-77
2024/01/12 10:05:08;;;;;;;3.10;1.42;;;;;;;;;;5005987;28;92369;-76
2024/01/12 10:07:35;;;;;;;4.70;1.73;;;;;;;;;;4997379;28;92766;-76
2024/01/12 10:10:01;;;;;;;2.88;1.48;;;;;;;;;;5001138;28;92678;-76
2024/01/12 10:12:28;;;;;;;6.45;1.63;;;;;;;;;;5007561;28;92841;-77
2024/01/12 10:15:07;;;;;;;5.95;1.50;;;;;;;;;;5008045;28;92707;-79
2024/01/12 10:17:34;;;;;;;6.55;1.45;;;;;;;;;;5010373;28;93737;-80
2024/01/12 10:20:03;;;;;;;2.33;1.27;;;;;;;;;;5009218;28;92386;-80
2024/01/12 10:22:30;;;;;;;3.85;1.27;;;;;;;;;;5008025;28;95838;-81
2024/01/12 10:25:01;;;;;;;4.28;1.90;;;;;;;;;;5009127;28;92930;-79
2024/01/12 10:27:28;;;;;;;6.37;1.70;;;;;;;;;;4995577;28;93039;-79
2024/01/12 10:29:56;;;;;;;11.57;1.50;;;;;;;;;;4993067;28;94092;-79
2024/01/12 10:32:24;;;;;;;4.13;1.58;;;;;;;;;;5002290;28;92786;-79
2024/01/12 10:34:52;;;;;;;10.68;1.42;;;;;;;;;;4992393;28;94421;-79
2024/01/12 10:37:20;;;;;;;3.75;1.48;;;;;;;;;;4992923;28;92485;-79
2024/01/12 10:39:47;;;;;;;8.27;1.92;;;;;;;;;;4996485;28;92862;-79
2024/01/12 10:42:14;;;;;;;6.03;1.58;;;;;;;;;;5013186;28;92444;-79
2024/01/12 10:44:42;;;;;;;3.10;1.50;;;;;;;;;;5012952;28;94233;-79
2024/01/12 10:47:20;;;;;;;5.53;1.80;;;;;;;;;;5015484;28;94846;-79
2024/01/12 10:49:49;;;;;;;4.38;1.98;;;;;;;;;;4996778;28;92312;-79
2024/01/12 10:52:31;;;;;;;6.85;1.63;;;;;;;;;;4995620;28;94517;-79
2024/01/12 10:55:05;;;;;;;6.63;1.65;;;;;;;;;;4995314;28;94997;-79
2024/01/12 10:57:32;;;;;;;13.48;2.17;;;;;;;;;;5009166;28;92273;-78
2024/01/12 10:59:59;;;;;;;5.28;1.92;;;;;;;;;;4993511;28;93426;-79
2024/01/12 11:02:27;;;;;;;11.25;1.90;;;;;;;;;;5005895;28;92593;-78
2024/01/12 11:04:54;;;;;;;8.93;1.63;;;;;;;;;;5009962;28;92722;-78
2024/01/12 11:07:21;;;;;;;5.72;1.70;;;;;;;;;;4994059;28;93049;-77
2024/01/12 11:09:49;;;;;;;4.60;1.73;;;;;;;;;;5013812;28;92459;-79
2024/01/12 11:12:35;;;;;;;7.30;1.58;;;;;;;;;;5009322;28;94401;-79
2024/01/12 11:15:02;;;;;;;3.90;1.17;;;;;;;;;;4998059;28;92818;-79
2024/01/12 11:17:31;;;;;;;7.90;1.75;;;;;;;;;;4994670;28;92436;-77
2024/01/12 11:20:11;;;;;;;8.30;1.50;;;;;;;;;;5004217;28;92692;-78
2024/01/12 11:22:48;;;;;;;7.00;1.42;;;;;;;;;;4993387;28;93278;-77
2024/01/12 11:25:15;;;;;;;6.55;1.35;;;;;;;;;;4994767;28;93291;-76
2024/01/12 11:27:43;;;;;;;3.97;1.40;;;;;;;;;;4993897;28;92239;-78
2024/01/12 11:30:10;;;;;;;6.22;2.08;;;;;;;;;;4995801;28;94035;-78
2024/01/12 11:32:42;;;;;;;7.45;1.63;;;;;;;;;;4995754;28;96147;-78
2024/01/12 11:35:19;;;;;;;11.52;1.80;;;;;;;;;;4995591;28;92883;-78
2024/01/12 11:37:59;;;;;;;5.57;1.30;;;;;;;;;;4996902;28;94941;-78
2024/01/12 11:40:27;;;;;;;10.93;1.45;;;;;;;;;;5001459;28;94127;-78
2024/01/12 11:42:53;;;;;;;3.05;1.55;;;;;;;;;;5004178;28;92516;-78
2024/01/12 11:45:20;;;;;;;7.88;2.15;;;;;;;;;;4999065;28;92673;-78
2024/01/12 11:47:46;;;;;;;3.83;1.45;;;;;;;;;;5002196;28;92817;-78
2024/01/12 11:50:14;;;;;;;5.35;1.75;;;;;;;;;;5000682;28;92378;-78
2024/01/12 11:52:41;;;;;;;5.45;1.33;;;;;;;;;;4996214;28;92947;-76
2024/01/12 11:55:08;;;;;;;4.97;1.27;;;;;;;;;;4994603;28;92815;-78
2024/01/12 11:57:37;;;;;;;10.68;1.58;;;;;;;;;;5004069;28;92469;-78
2024/01/12 12:00:05;;;;;;;3.40;1.65;;;;;;;;;;4993934;28;92415;-78
2024/01/12 12:02:36;;;;;;;6.07;1.70;;;;;;;;;;4996210;28;94800;-81
2024/01/12 12:05:06;;;;;;;15.48;1.80;;;;;;;;;;5004756;28;92412;-79
2024/01/12 12:07:37;;;;;;;7.67;1.33;;;;;;;;;;4997349;28;92629;-79
2024/01/12 12:10:05;;;;;;;5.60;1.67;;;;;;;;;;5005586;28;92339;-80
2024/01/12 12:12:31;;;;;;;4.45;1.40;;;;;;;;;;4994109;28;92264;-79
2024/01/12 12:15:05;;;;;;;6.47;1.40;;;;;;;;;;5005818;28;93830;-80
2024/01/12 12:17:33;;;;;;;8.05;1.45;;;;;;;;;;5000677;28;92834;-78
2024/01/12 12:20:00;;;;;;;4.80;1.45;;;;;;;;;;4999156;28;92637;-78
2024/01/12 12:22:29;;;;;;;2.38;1.27;;;;;;;;;;5004614;28;92567;-78
2024/01/12 12:24:55;;;;;;;5.70;1.70;;;;;;;;;;5004913;28;92379;-78
2024/01/12 12:27:22;;;;;;;3.13;1.40;;;;;;;;;;4995137;28;94708;-78
2024/01/12 12:29:49;;;;;;;7.88;1.63;;;;;;;;;;5007505;28;92403;-78
2024/01/12 12:32:16;;;;;;;2.92;1.60;;;;;;;;;;5013444;28;92902;-78
2024/01/12 12:34:46;;;;;;;3.60;1.48;;;;;;;;;;5006239;28;93723;-77
2024/01/12 12:37:13;;;;;;;4.47;1.27;;;;;;;;;;4994097;28;93762;-78
2024/01/12 12:39:39;;;;;;;4.45;1.83;;;;;;;;;;5003536;28;93529;-78
2024/01/12 12:42:08;;;;;;;4.63;1.48;;;;;;;;;;5010389;28;92476;-78
2024/01/12 12:44:36;;;;;;;5.03;1.52;;;;;;;;;;5026919;28;91946;-78
2024/01/12 12:47:06;;;;;;;7.55;1.40;;;;;;;;;;5021947;28;92404;-78
2024/01/12 12:49:34;;;;;;;2.90;1.23;;;;;;;;;;5002829;28;92427;-78
2024/01/12 12:52:02;;;;;;;4.05;1.17;;;;;;;;;;4997298;28;94924;-78
2024/01/12 12:54:30;;;;;;;4.88;1.13;;;;;;;;;;4994096;28;94001;-78
2024/01/12 12:56:58;;;;;;;4.13;1.38;;;;;;;;;;4993945;28;93556;-78
2024/01/12 12:59:25;;;;;;;1.60;1.25;;;;;;;;;;4996788;28;92406;-78
2024/01/12 13:01:52;;;;;;;4.90;1.30;;;;;;;;;;5007823;28;92536;-78
2024/01/12 13:04:18;;;;;;;5.90;1.30;;;;;;;;;;5007698;28;92488;-78
2024/01/12 13:06:45;;;;;;;2.97;1.05;;;;;;;;;;5012007;28;92361;-77
2024/01/12 13:09:12;;;;;;;2.80;0.80;;;;;;;;;;5008860;28;93229;-81
2024/01/12 13:11:39;;;;;;;6.72;1.70;;;;;;;;;;4996436;28;92785;-80
2024/01/12 13:14:07;;;;;;;8.48;1.40;;;;;;;;;;5004438;28;92305;-81
2024/01/12 13:16:35;;;;;;;4.82;0.90;;;;;;;;;;5004702;28;94755;-79
2024/01/12 13:19:03;;;;;;;7.03;1.13;;;;;;;;;;5006593;28;92855;-79
2024/01/12 13:21:47;;;;;;;6.85;1.10;;;;;;;;;;5006689;28;92820;-78
2024/01/12 13:24:14;;;;;;;2.67;0.80;;;;;;;;;;5014502;28;93677;-78
2024/01/12 13:26:40;;;;;;;5.88;1.20;;;;;;;;;;5020890;28;92400;-79
2024/01/12 13:29:08;;;;;;;3.17;0.98;;;;;;;;;;5013794;28;92642;-79
2024/01/12 13:31:35;;;;;;;3.85;1.27;;;;;;;;;;5008960;28;93153;-79
2024/01/12 13:34:02;;;;;;;5.43;0.80;;;;;;;;;;5014358;28;92286;-79
2024/01/12 13:36:28;;;;;;;8.95;1.13;;;;;;;;;;5008017;28;95903;-80
2024/01/12 13:38:55;;;;;;;2.72;0.98;;;;;;;;;;5010452;28;92583;-79
2024/01/12 13:41:21;;;;;;;2.85;0.80;;;;;;;;;;5010864;28;94972;-80
2024/01/12 13:43:49;;;;;;;3.92;1.00;;;;;;;;;;5013946;28;93373;-80
2024/01/12 13:46:16;;;;;;;2.20;0.90;;;;;;;;;;5010120;28;92929;-80
2024/01/12 13:48:42;;;;;;;1.00;0.85;;;;;;;;;;5006039;28;94827;-78
2024/01/12 13:51:09;;;;;;;5.53;1.52;;;;;;;;;;5009587;28;92900;-78
2024/01/12 13:53:37;;;;;;;1.83;0.73;;;;;;;;;;5007899;28;92282;-78
2024/01/12 13:56:04;;;;;;;8.88;1.00;;;;;;;;;;5012398;28;92387;-78
2024/01/12 13:58:31;;;;;;;2.30;0.88;;;;;;;;;;5012701;28;92216;-78
2024/01/12 14:00:57;;;;;;;1.40;0.68;;;;;;;;;;4989947;28;92943;-79
2024/01/12 14:03:24;;;;;;;3.58;1.10;;;;;;;;;;5019336;28;93327;-79
2024/01/12 14:05:51;;;;;;;2.13;0.85;;;;;;;;;;5004023;28;94412;-76
2024/01/12 14:08:18;;;;;;;0.98;0.65;;;;;;;;;;5013335;28;92397;-79
2024/01/12 14:10:48;;;;;;;2.13;0.65;;;;;;;;;;5007789;28;92949;-78
2024/01/12 14:13:18;;;;;;;2.33;1.27;;;;;;;;;;4999349;28;92524;-78
2024/01/12 14:15:44;;;;;;;3.15;0.75;;;;;;;;;;5011628;28;92979;-77
2024/01/12 14:18:11;;;;;;;3.33;1.08;;;;;;;;;;5013104;28;92502;-77
2024/01/12 14:20:38;;;;;;;6.15;0.93;;;;;;;;;;5013851;28;93735;-78
2024/01/12 14:23:05;;;;;;;3.80;0.60;;;;;;;;;;5016421;27;92381;-78
2024/01/12 14:25:32;;;;;;;1.52;0.70;;;;;;;;;;5011009;28;92979;-77
2024/01/12 14:28:00;;;;;;;1.25;0.85;;;;;;;;;;5013972;28;94334;-77
2024/01/12 14:30:32;;;;;;;11.20;2.50;;;;;;;;;;5008012;28;95300;-78
2024/01/12 14:32:59;;;;;;;29.45;3.92;;;;;;;;;;5001702;28;95262;-77
2024/01/12 14:35:25;;;;;;;18.13;3.00;;;;;;;;;;4996863;28;92410;-76
2024/01/12 14:37:52;;;;;;;14.30;3.13;;;;;;;;;;4998735;28;92635;-79
2024/01/12 14:40:19;;;;;;;10.73;2.90;;;;;;;;;;4999204;28;92375;-77
2024/01/12 14:42:45;;;;;;;9.90;2.38;;;;;;;;;;5012140;28;94688;-77